sensor_id;sensor_type;location;lat;lon;timestamp;pressure;altitude;pressure_sealevel;temperature;humidity
13952;BME280;39535;52.192;9.886;2023-03-23T00:00:47;100024.69;;;12.81;66.27
13952;BME280;39535;52.192;9.886;2023-03-23T00:03:13;100010.66;;;12.82;66.57
13952;BME280;39535;52.192;9.886;2023-03-23T00:05:40;99998.84;;;12.95;66.93
13952;BME280;39535;52.192;9.886;2023-03-23T00:08:06;99975.44;;;12.90;67.84
13952;BME280;39535;52.192;9.886;2023-03-23T00:10:34;99955.31;;;12.91;68.37
13952;BME280;39535;52.192;9.886;2023-03-23T00:13:02;99930.91;;;12.90;68.44
13952;BME280;39535;52.192;9.886;2023-03-23T00:15:29;99923.94;;;12.89;68.92
13952;BME280;39535;52.192;9.886;2023-03-23T00:17:58;99909.44;;;12.81;69.60
13952;BME280;39535;52.192;9.886;2023-03-23T00:20:27;99888.34;;;12.84;70.22
13952;BME280;39535;52.192;9.886;2023-03-23T00:22:54;99858.59;;;12.63;71.06
13952;BME280;39535;52.192;9.886;2023-03-23T00:25:25;99819.06;;;12.69;72.23
13952;BME280;39535;52.192;9.886;2023-03-23T00:27:51;99781.25;;;12.76;72.56
13952;BME280;39535;52.192;9.886;2023-03-23T00:30:19;99747.34;;;12.73;73.70
13952;BME280;39535;52.192;9.886;2023-03-23T00:32:47;99726.56;;;12.68;73.98
13952;BME280;39535;52.192;9.886;2023-03-23T00:35:13;99700.31;;;12.70;74.27
13952;BME280;39535;52.192;9.886;2023-03-23T00:37:40;99710.19;;;12.63;73.70
13952;BME280;39535;52.192;9.886;2023-03-23T00:40:07;99717.66;;;12.50;73.15
13952;BME280;39535;52.192;9.886;2023-03-23T00:42:34;99710.53;;;12.54;73.73
13952;BME280;39535;52.192;9.886;2023-03-23T00:45:03;99702.03;;;12.49;73.78
13952;BME280;39535;52.192;9.886;2023-03-23T00:47:37;99696.09;;;12.44;73.98
13952;BME280;39535;52.192;9.886;2023-03-23T00:50:04;99696.53;;;12.55;74.25
13952;BME280;39535;52.192;9.886;2023-03-23T00:52:31;99692.94;;;12.58;73.98
13952;BME280;39535;52.192;9.886;2023-03-23T00:54:57;99687.03;;;12.52;74.46
13952;BME280;39535;52.192;9.886;2023-03-23T00:57:23;99676.44;;;12.56;74.82
13952;BME280;39535;52.192;9.886;2023-03-23T00:59:50;99663.72;;;12.46;75.13
13952;BME280;39535;52.192;9.886;2023-03-23T01:02:16;99642.91;;;12.43;75.79
13952;BME280;39535;52.192;9.886;2023-03-23T01:04:45;99636.25;;;12.35;76.04
13952;BME280;39535;52.192;9.886;2023-03-23T01:07:17;99609.66;;;12.45;76.73
13952;BME280;39535;52.192;9.886;2023-03-23T01:09:44;99595.97;;;12.39;77.55
13952;BME280;39535;52.192;9.886;2023-03-23T01:12:12;99567.41;;;12.32;78.08
13952;BME280;39535;52.192;9.886;2023-03-23T01:14:39;99560.94;;;12.43;78.46
13952;BME280;39535;52.192;9.886;2023-03-23T01:17:06;99529.75;;;12.37;79.10
13952;BME280;39535;52.192;9.886;2023-03-23T01:19:33;99517.78;;;12.31;80.01
13952;BME280;39535;52.192;9.886;2023-03-23T01:22:01;99487.03;;;12.36;79.94
13952;BME280;39535;52.192;9.886;2023-03-23T01:24:27;99493.00;;;12.40;79.88
13952;BME280;39535;52.192;9.886;2023-03-23T01:26:54;99497.13;;;12.45;79.43
13952;BME280;39535;52.192;9.886;2023-03-23T01:29:20;99507.28;;;12.53;78.45
13952;BME280;39535;52.192;9.886;2023-03-23T01:31:47;99523.72;;;12.57;77.94
13952;BME280;39535;52.192;9.886;2023-03-23T01:34:13;99541.91;;;12.17;78.75
13952;BME280;39535;52.192;9.886;2023-03-23T01:36:39;99525.00;;;12.24;79.06
13952;BME280;39535;52.192;9.886;2023-03-23T01:39:07;99509.00;;;12.32;79.27
13952;BME280;39535;52.192;9.886;2023-03-23T01:41:34;99513.25;;;12.35;79.53
13952;BME280;39535;52.192;9.886;2023-03-23T01:44:02;99521.06;;;12.36;79.39
13952;BME280;39535;52.192;9.886;2023-03-23T01:46:30;99538.84;;;12.28;78.14
13952;BME280;39535;52.192;9.886;2023-03-23T01:49:00;99550.13;;;12.28;78.26
13952;BME280;39535;52.192;9.886;2023-03-23T01:51:31;99552.44;;;12.36;78.10
13952;BME280;39535;52.192;9.886;2023-03-23T01:54:02;99555.56;;;12.24;77.07
13952;BME280;39535;52.192;9.886;2023-03-23T01:56:35;99580.91;;;12.23;77.22
13952;BME280;39535;52.192;9.886;2023-03-23T01:59:07;99582.56;;;12.24;78.12
13952;BME280;39535;52.192;9.886;2023-03-23T02:01:34;99572.84;;;12.28;78.34
13952;BME280;39535;52.192;9.886;2023-03-23T02:04:03;99570.53;;;12.20;77.95
13952;BME280;39535;52.192;9.886;2023-03-23T02:06:30;99567.13;;;12.18;77.61
13952;BME280;39535;52.192;9.886;2023-03-23T02:08:57;99570.59;;;12.19;78.45
13952;BME280;39535;52.192;9.886;2023-03-23T02:11:24;99565.91;;;12.05;78.92
13952;BME280;39535;52.192;9.886;2023-03-23T02:13:51;99548.47;;;12.05;78.61
13952;BME280;39535;52.192;9.886;2023-03-23T02:16:25;99552.22;;;11.98;78.87
13952;BME280;39535;52.192;9.886;2023-03-23T02:18:59;99542.34;;;12.05;79.31
13952;BME280;39535;52.192;9.886;2023-03-23T02:22:01;99516.03;;;12.09;79.17
13952;BME280;39535;52.192;9.886;2023-03-23T02:24:50;99520.41;;;12.09;78.87
13952;BME280;39535;52.192;9.886;2023-03-23T02:30:32;99511.34;;;12.18;79.53
13952;BME280;39535;52.192;9.886;2023-03-23T02:33:31;99525.50;;;12.12;79.20
13952;BME280;39535;52.192;9.886;2023-03-23T02:36:03;99509.81;;;12.12;79.74
13952;BME280;39535;52.192;9.886;2023-03-23T02:38:34;99521.13;;;12.12;79.77
13952;BME280;39535;52.192;9.886;2023-03-23T02:41:02;99512.88;;;12.01;80.64
13952;BME280;39535;52.192;9.886;2023-03-23T02:43:33;99473.44;;;11.84;82.08
13952;BME280;39535;52.192;9.886;2023-03-23T02:46:04;99437.94;;;12.00;82.72
13952;BME280;39535;52.192;9.886;2023-03-23T02:48:35;99398.94;;;11.72;85.97
13952;BME280;39535;52.192;9.886;2023-03-23T02:51:02;99304.94;;;11.69;87.75
13952;BME280;39535;52.192;9.886;2023-03-23T02:53:30;99274.00;;;11.80;88.10
13952;BME280;39535;52.192;9.886;2023-03-23T02:55:59;99259.16;;;11.81;88.88
13952;BME280;39535;52.192;9.886;2023-03-23T02:58:28;99256.19;;;11.88;88.64
13952;BME280;39535;52.192;9.886;2023-03-23T03:00:54;99256.47;;;11.82;88.32
13952;BME280;39535;52.192;9.886;2023-03-23T03:03:23;99258.41;;;11.77;87.23
13952;BME280;39535;52.192;9.886;2023-03-23T03:05:58;99284.50;;;11.79;87.21
13952;BME280;39535;52.192;9.886;2023-03-23T03:08:32;99287.84;;;11.82;86.37
13952;BME280;39535;52.192;9.886;2023-03-23T03:11:07;99307.00;;;11.83;86.35
13952;BME280;39535;52.192;9.886;2023-03-23T03:13:43;99318.97;;;11.88;85.66
13952;BME280;39535;52.192;9.886;2023-03-23T03:16:18;99310.09;;;11.92;85.67
13952;BME280;39535;52.192;9.886;2023-03-23T03:18:54;99318.13;;;11.88;85.98
13952;BME280;39535;52.192;9.886;2023-03-23T03:21:27;99302.22;;;11.72;87.00
13952;BME280;39535;52.192;9.886;2023-03-23T03:23:56;99294.91;;;11.80;86.93
13952;BME280;39535;52.192;9.886;2023-03-23T03:26:26;99297.84;;;11.72;88.15
13952;BME280;39535;52.192;9.886;2023-03-23T03:28:54;99273.66;;;11.67;88.87
13952;BME280;39535;52.192;9.886;2023-03-23T03:31:23;99253.66;;;11.66;89.35
13952;BME280;39535;52.192;9.886;2023-03-23T03:33:52;99240.38;;;11.71;89.80
13952;BME280;39535;52.192;9.886;2023-03-23T03:36:21;99231.81;;;11.47;91.38
13952;BME280;39535;52.192;9.886;2023-03-23T03:38:52;99213.22;;;11.55;91.41
13952;BME280;39535;52.192;9.886;2023-03-23T03:41:19;99223.41;;;11.61;91.08
13952;BME280;39535;52.192;9.886;2023-03-23T03:43:46;99219.69;;;11.46;92.61
13952;BME280;39535;52.192;9.886;2023-03-23T03:46:12;99181.59;;;11.40;93.84
13952;BME280;39535;52.192;9.886;2023-03-23T03:48:38;99169.44;;;11.39;94.17
13952;BME280;39535;52.192;9.886;2023-03-23T03:51:05;99169.44;;;11.39;94.67
13952;BME280;39535;52.192;9.886;2023-03-23T03:53:31;99169.44;;;11.39;94.11
13952;BME280;39535;52.192;9.886;2023-03-23T03:55:59;99167.41;;;11.25;95.00
13952;BME280;39535;52.192;9.886;2023-03-23T03:58:27;99139.06;;;11.37;95.12
13952;BME280;39535;52.192;9.886;2023-03-23T04:00:57;99154.44;;;11.44;94.37
13952;BME280;39535;52.192;9.886;2023-03-23T04:03:23;99154.81;;;11.35;94.67
13952;BME280;39535;52.192;9.886;2023-03-23T04:05:50;99151.94;;;11.41;94.67
13952;BME280;39535;52.192;9.886;2023-03-23T04:08:17;99166.66;;;11.44;94.13
13952;BME280;39535;52.192;9.886;2023-03-23T04:10:44;99187.56;;;11.44;93.66
13952;BME280;39535;52.192;9.886;2023-03-23T04:13:11;99184.06;;;11.43;93.43
13952;BME280;39535;52.192;9.886;2023-03-23T04:15:38;99197.75;;;11.50;92.44
13952;BME280;39535;52.192;9.886;2023-03-23T04:18:04;99212.38;;;11.54;92.13
13952;BME280;39535;52.192;9.886;2023-03-23T04:20:31;99222.22;;;11.47;91.77
13952;BME280;39535;52.192;9.886;2023-03-23T04:23:00;99246.59;;;11.48;90.40
13952;BME280;39535;52.192;9.886;2023-03-23T04:25:27;99277.06;;;11.27;90.32
13952;BME280;39535;52.192;9.886;2023-03-23T04:27:53;99270.44;;;11.40;91.35
13952;BME280;39535;52.192;9.886;2023-03-23T04:30:22;99286.47;;;11.31;89.90
13952;BME280;39535;52.192;9.886;2023-03-23T04:32:50;99292.13;;;11.42;90.10
13952;BME280;39535;52.192;9.886;2023-03-23T04:35:18;99294.44;;;11.50;89.96
13952;BME280;39535;52.192;9.886;2023-03-23T04:37:45;99302.53;;;11.44;88.51
13952;BME280;39535;52.192;9.886;2023-03-23T04:40:13;99319.56;;;11.52;88.72
13952;BME280;39535;52.192;9.886;2023-03-23T04:42:41;99329.31;;;11.49;88.47
13952;BME280;39535;52.192;9.886;2023-03-23T04:45:11;99297.09;;;11.48;89.01
13952;BME280;39535;52.192;9.886;2023-03-23T04:47:41;99271.56;;;11.55;89.21
13952;BME280;39535;52.192;9.886;2023-03-23T04:50:14;99305.00;;;11.47;88.77
13952;BME280;39535;52.192;9.886;2023-03-23T04:52:40;99308.59;;;11.44;89.19
13952;BME280;39535;52.192;9.886;2023-03-23T04:55:11;99308.78;;;11.40;88.37
13952;BME280;39535;52.192;9.886;2023-03-23T04:57:38;99316.63;;;11.40;89.41
13952;BME280;39535;52.192;9.886;2023-03-23T05:00:06;99290.41;;;11.41;89.27
13952;BME280;39535;52.192;9.886;2023-03-23T05:02:34;99300.06;;;11.39;88.61
13952;BME280;39535;52.192;9.886;2023-03-23T05:05:02;99293.97;;;11.40;88.36
13952;BME280;39535;52.192;9.886;2023-03-23T05:07:29;99296.56;;;11.40;87.75
13952;BME280;39535;52.192;9.886;2023-03-23T05:09:55;99306.03;;;11.43;87.42
13952;BME280;39535;52.192;9.886;2023-03-23T05:12:21;99325.84;;;11.48;87.63
13952;BME280;39535;52.192;9.886;2023-03-23T05:14:48;99340.19;;;11.38;86.92
13952;BME280;39535;52.192;9.886;2023-03-23T05:17:15;99345.19;;;11.44;86.85
13952;BME280;39535;52.192;9.886;2023-03-23T05:19:42;99340.59;;;11.49;86.65
13952;BME280;39535;52.192;9.886;2023-03-23T05:22:10;99361.69;;;11.45;86.56
13952;BME280;39535;52.192;9.886;2023-03-23T05:24:37;99366.97;;;11.43;85.40
13952;BME280;39535;52.192;9.886;2023-03-23T05:27:04;99374.22;;;11.37;85.48
13952;BME280;39535;52.192;9.886;2023-03-23T05:29:33;99380.28;;;11.37;84.77
13952;BME280;39535;52.192;9.886;2023-03-23T05:32:01;99412.31;;;11.42;83.35
13952;BME280;39535;52.192;9.886;2023-03-23T05:34:27;99435.53;;;11.50;83.51
13952;BME280;39535;52.192;9.886;2023-03-23T05:36:54;99436.69;;;11.43;83.09
13952;BME280;39535;52.192;9.886;2023-03-23T05:39:21;99456.06;;;11.37;83.25
13952;BME280;39535;52.192;9.886;2023-03-23T05:41:48;99448.97;;;11.41;83.18
13952;BME280;39535;52.192;9.886;2023-03-23T05:44:14;99429.88;;;11.39;83.47
13952;BME280;39535;52.192;9.886;2023-03-23T05:46:40;99451.38;;;11.45;83.27
13952;BME280;39535;52.192;9.886;2023-03-23T05:49:07;99463.00;;;11.38;82.98
13952;BME280;39535;52.192;9.886;2023-03-23T05:51:33;99464.69;;;11.39;83.04
13952;BME280;39535;52.192;9.886;2023-03-23T05:54:00;99454.97;;;11.43;83.25
13952;BME280;39535;52.192;9.886;2023-03-23T05:56:29;99448.97;;;11.41;83.86
13952;BME280;39535;52.192;9.886;2023-03-23T05:58:56;99439.53;;;11.37;84.06
13952;BME280;39535;52.192;9.886;2023-03-23T06:01:23;99438.13;;;11.28;84.13
13952;BME280;39535;52.192;9.886;2023-03-23T06:03:49;99424.84;;;11.34;84.43
13952;BME280;39535;52.192;9.886;2023-03-23T06:06:19;99413.47;;;11.35;84.27
13952;BME280;39535;52.192;9.886;2023-03-23T06:08:45;99402.78;;;11.41;84.31
13952;BME280;39535;52.192;9.886;2023-03-23T06:11:11;99418.59;;;11.38;84.22
13952;BME280;39535;52.192;9.886;2023-03-23T06:13:39;99394.94;;;11.41;84.83
13952;BME280;39535;52.192;9.886;2023-03-23T06:16:06;99391.81;;;11.31;84.37
13952;BME280;39535;52.192;9.886;2023-03-23T06:18:33;99385.50;;;11.37;84.89
13952;BME280;39535;52.192;9.886;2023-03-23T06:21:02;99367.91;;;11.42;85.62
13952;BME280;39535;52.192;9.886;2023-03-23T06:23:29;99370.13;;;11.51;85.21
13952;BME280;39535;52.192;9.886;2023-03-23T06:25:58;99364.19;;;11.48;85.23
13952;BME280;39535;52.192;9.886;2023-03-23T06:28:25;99352.75;;;11.50;85.80
13952;BME280;39535;52.192;9.886;2023-03-23T06:30:53;99355.06;;;11.58;84.96
13952;BME280;39535;52.192;9.886;2023-03-23T06:33:20;99361.97;;;11.59;84.29
13952;BME280;39535;52.192;9.886;2023-03-23T06:35:46;99371.75;;;11.56;84.10
13952;BME280;39535;52.192;9.886;2023-03-23T06:38:13;99386.13;;;11.66;84.22
13952;BME280;39535;52.192;9.886;2023-03-23T06:40:40;99395.97;;;11.59;83.83
13952;BME280;39535;52.192;9.886;2023-03-23T06:43:06;99392.16;;;11.68;84.10
13952;BME280;39535;52.192;9.886;2023-03-23T06:45:33;99413.66;;;11.75;83.68
13952;BME280;39535;52.192;9.886;2023-03-23T06:48:00;99432.75;;;11.77;83.41
13952;BME280;39535;52.192;9.886;2023-03-23T06:50:27;99438.59;;;11.83;82.85
13952;BME280;39535;52.192;9.886;2023-03-23T06:52:53;99460.16;;;11.88;83.34
13952;BME280;39535;52.192;9.886;2023-03-23T06:55:19;99474.53;;;11.78;82.59
13952;BME280;39535;52.192;9.886;2023-03-23T06:57:47;99480.25;;;11.88;82.24
13952;BME280;39535;52.192;9.886;2023-03-23T07:00:14;99465.06;;;11.98;83.28
13952;BME280;39535;52.192;9.886;2023-03-23T07:02:40;99453.56;;;12.02;83.46
13952;BME280;39535;52.192;9.886;2023-03-23T07:05:09;99455.88;;;12.09;83.36
13952;BME280;39535;52.192;9.886;2023-03-23T07:07:36;99463.56;;;12.12;82.07
13952;BME280;39535;52.192;9.886;2023-03-23T07:10:03;99487.78;;;12.18;81.63
13952;BME280;39535;52.192;9.886;2023-03-23T07:12:29;99497.41;;;12.17;81.69
13952;BME280;39535;52.192;9.886;2023-03-23T07:14:55;99506.31;;;12.13;81.83
13952;BME280;39535;52.192;9.886;2023-03-23T07:17:22;99511.09;;;12.02;81.10
13952;BME280;39535;52.192;9.886;2023-03-23T07:19:48;99497.00;;;12.06;82.06
13952;BME280;39535;52.192;9.886;2023-03-23T07:22:16;99502.22;;;12.06;81.30
13952;BME280;39535;52.192;9.886;2023-03-23T07:24:42;99525.81;;;12.04;81.14
13952;BME280;39535;52.192;9.886;2023-03-23T07:27:09;99501.66;;;12.20;82.09
13952;BME280;39535;52.192;9.886;2023-03-23T07:29:35;99501.00;;;12.15;80.45
13952;BME280;39535;52.192;9.886;2023-03-23T07:32:04;99546.19;;;12.18;79.90
13952;BME280;39535;52.192;9.886;2023-03-23T07:34:31;99540.78;;;12.23;80.99
13952;BME280;39535;52.192;9.886;2023-03-23T07:36:57;99520.25;;;12.34;81.79
13952;BME280;39535;52.192;9.886;2023-03-23T07:39:25;99546.84;;;12.45;80.59
13952;BME280;39535;52.192;9.886;2023-03-23T07:41:52;99560.69;;;12.49;79.23
13952;BME280;39535;52.192;9.886;2023-03-23T07:44:18;99589.31;;;12.52;78.93
13952;BME280;39535;52.192;9.886;2023-03-23T07:46:44;99596.09;;;12.58;78.31
13952;BME280;39535;52.192;9.886;2023-03-23T07:49:12;99620.06;;;12.69;78.40
13952;BME280;39535;52.192;9.886;2023-03-23T07:51:39;99625.94;;;12.74;77.51
13952;BME280;39535;52.192;9.886;2023-03-23T07:54:06;99633.50;;;12.82;77.63
13952;BME280;39535;52.192;9.886;2023-03-23T07:56:35;99661.94;;;12.91;76.72
13952;BME280;39535;52.192;9.886;2023-03-23T07:59:02;99665.09;;;12.99;76.96
13952;BME280;39535;52.192;9.886;2023-03-23T08:01:30;99692.63;;;12.87;75.77
13952;BME280;39535;52.192;9.886;2023-03-23T08:03:57;99698.38;;;12.97;75.38
13952;BME280;39535;52.192;9.886;2023-03-23T08:06:24;99684.91;;;13.06;75.58
13952;BME280;39535;52.192;9.886;2023-03-23T08:08:51;99738.19;;;13.05;75.08
13952;BME280;39535;52.192;9.886;2023-03-23T08:11:18;99712.84;;;13.06;75.38
13952;BME280;39535;52.192;9.886;2023-03-23T08:13:46;99714.19;;;13.16;75.99
13952;BME280;39535;52.192;9.886;2023-03-23T08:16:13;99699.78;;;13.26;75.34
13952;BME280;39535;52.192;9.886;2023-03-23T08:18:39;99713.44;;;13.35;75.07
13952;BME280;39535;52.192;9.886;2023-03-23T08:21:07;99717.66;;;13.39;74.91
13952;BME280;39535;52.192;9.886;2023-03-23T08:23:34;99732.44;;;13.40;74.59
13952;BME280;39535;52.192;9.886;2023-03-23T08:26:01;99753.56;;;13.15;74.04
13952;BME280;39535;52.192;9.886;2023-03-23T08:28:28;99763.19;;;13.14;74.13
13952;BME280;39535;52.192;9.886;2023-03-23T08:30:55;99763.31;;;13.11;73.75
13952;BME280;39535;52.192;9.886;2023-03-23T08:33:22;99779.31;;;13.25;74.43
13952;BME280;39535;52.192;9.886;2023-03-23T08:35:55;99777.47;;;13.27;73.26
13952;BME280;39535;52.192;9.886;2023-03-23T08:38:22;99779.09;;;13.31;73.81
13952;BME280;39535;52.192;9.886;2023-03-23T08:40:48;99766.47;;;13.41;74.52
13952;BME280;39535;52.192;9.886;2023-03-23T08:43:15;99762.78;;;13.45;74.48
13952;BME280;39535;52.192;9.886;2023-03-23T08:45:41;99787.28;;;13.46;72.93
13952;BME280;39535;52.192;9.886;2023-03-23T08:48:09;99784.88;;;13.40;72.90
13952;BME280;39535;52.192;9.886;2023-03-23T08:50:36;99798.41;;;13.51;73.08
13952;BME280;39535;52.192;9.886;2023-03-23T08:53:03;99786.34;;;13.47;73.23
13952;BME280;39535;52.192;9.886;2023-03-23T08:55:29;99776.53;;;13.52;73.10
13952;BME280;39535;52.192;9.886;2023-03-23T08:57:56;99786.38;;;13.45;72.32
13952;BME280;39535;52.192;9.886;2023-03-23T09:00:22;99796.25;;;13.61;72.69
13952;BME280;39535;52.192;9.886;2023-03-23T09:02:52;99813.63;;;13.63;71.99
13952;BME280;39535;52.192;9.886;2023-03-23T09:05:22;99801.19;;;13.68;72.58
13952;BME280;39535;52.192;9.886;2023-03-23T09:07:52;99809.56;;;13.56;72.16
13952;BME280;39535;52.192;9.886;2023-03-23T09:10:19;99804.97;;;13.61;71.92
13952;BME280;39535;52.192;9.886;2023-03-23T09:12:46;99796.72;;;13.70;72.22
13952;BME280;39535;52.192;9.886;2023-03-23T09:15:15;99803.53;;;13.54;71.22
13952;BME280;39535;52.192;9.886;2023-03-23T09:17:43;99807.00;;;13.55;72.02
13952;BME280;39535;52.192;9.886;2023-03-23T09:20:12;99813.16;;;13.54;72.89
13952;BME280;39535;52.192;9.886;2023-03-23T09:22:42;99833.47;;;13.48;71.24
13952;BME280;39535;52.192;9.886;2023-03-23T09:25:10;99824.03;;;13.44;71.74
13952;BME280;39535;52.192;9.886;2023-03-23T09:27:37;99818.84;;;13.43;71.44
13952;BME280;39535;52.192;9.886;2023-03-23T09:30:05;99839.31;;;13.55;72.10
13952;BME280;39535;52.192;9.886;2023-03-23T09:32:32;99822.41;;;13.62;72.59
13952;BME280;39535;52.192;9.886;2023-03-23T09:35:00;99829.34;;;13.63;71.23
13952;BME280;39535;52.192;9.886;2023-03-23T09:37:27;99838.25;;;13.59;70.70
13952;BME280;39535;52.192;9.886;2023-03-23T09:39:54;99842.88;;;13.75;71.74
13952;BME280;39535;52.192;9.886;2023-03-23T09:42:31;99835.59;;;13.81;72.05
13952;BME280;39535;52.192;9.886;2023-03-23T09:45:07;99865.28;;;13.61;70.53
13952;BME280;39535;52.192;9.886;2023-03-23T09:47:40;99865.91;;;13.68;70.24
13952;BME280;39535;52.192;9.886;2023-03-23T09:50:12;99857.31;;;13.85;71.47
13952;BME280;39535;52.192;9.886;2023-03-23T09:52:44;99862.03;;;13.97;71.48
13952;BME280;39535;52.192;9.886;2023-03-23T09:55:13;99860.09;;;14.02;71.28
13952;BME280;39535;52.192;9.886;2023-03-23T09:57:46;99883.66;;;14.04;70.38
13952;BME280;39535;52.192;9.886;2023-03-23T10:00:17;99894.72;;;14.10;70.39
13952;BME280;39535;52.192;9.886;2023-03-23T10:02:49;99890.16;;;14.16;69.90
13952;BME280;39535;52.192;9.886;2023-03-23T10:05:27;99904.72;;;14.23;70.43
13952;BME280;39535;52.192;9.886;2023-03-23T10:07:55;99912.66;;;14.21;69.83
13952;BME280;39535;52.192;9.886;2023-03-23T10:10:26;99919.94;;;14.15;69.53
13952;BME280;39535;52.192;9.886;2023-03-23T10:12:59;99893.50;;;14.40;71.28
13952;BME280;39535;52.192;9.886;2023-03-23T10:15:31;99925.72;;;14.23;69.32
13952;BME280;39535;52.192;9.886;2023-03-23T10:18:01;99894.16;;;14.24;69.99
13952;BME280;39535;52.192;9.886;2023-03-23T10:20:37;99923.97;;;14.23;69.52
13952;BME280;39535;52.192;9.886;2023-03-23T10:23:13;99939.56;;;14.26;69.17
13952;BME280;39535;52.192;9.886;2023-03-23T10:25:46;99933.47;;;14.26;70.12
13952;BME280;39535;52.192;9.886;2023-03-23T10:28:18;99922.75;;;14.10;69.45
13952;BME280;39535;52.192;9.886;2023-03-23T10:30:48;99918.63;;;14.25;70.43
13952;BME280;39535;52.192;9.886;2023-03-23T10:33:20;99897.16;;;14.36;70.94
13952;BME280;39535;52.192;9.886;2023-03-23T10:35:53;99931.94;;;14.20;69.08
13952;BME280;39535;52.192;9.886;2023-03-23T10:38:27;99952.06;;;13.99;68.44
13952;BME280;39535;52.192;9.886;2023-03-23T10:41:00;99946.13;;;14.16;69.95
13952;BME280;39535;52.192;9.886;2023-03-23T10:43:28;99921.25;;;14.25;70.24
13952;BME280;39535;52.192;9.886;2023-03-23T10:45:59;99954.09;;;14.13;68.55
13952;BME280;39535;52.192;9.886;2023-03-23T10:48:31;99966.34;;;14.14;68.33
13952;BME280;39535;52.192;9.886;2023-03-23T10:51:01;99943.22;;;14.22;69.45
13952;BME280;39535;52.192;9.886;2023-03-23T10:53:31;99949.78;;;14.33;69.64
13952;BME280;39535;52.192;9.886;2023-03-23T10:55:59;99933.09;;;14.35;69.29
13952;BME280;39535;52.192;9.886;2023-03-23T10:58:28;99927.16;;;14.50;69.38
13952;BME280;39535;52.192;9.886;2023-03-23T11:00:55;99938.31;;;14.56;67.02
13952;BME280;39535;52.192;9.886;2023-03-23T11:03:25;99979.25;;;14.61;65.96
13952;BME280;39535;52.192;9.886;2023-03-23T11:05:56;100004.94;;;14.75;67.52
13952;BME280;39535;52.192;9.886;2023-03-23T11:08:25;99978.13;;;14.87;66.69
13952;BME280;39535;52.192;9.886;2023-03-23T11:10:55;100003.47;;;15.09;66.60
13952;BME280;39535;52.192;9.886;2023-03-23T11:13:29;100051.91;;;15.03;64.89
13952;BME280;39535;52.192;9.886;2023-03-23T11:15:56;100054.72;;;14.99;64.13
13952;BME280;39535;52.192;9.886;2023-03-23T11:18:25;100079.19;;;15.01;64.18
13952;BME280;39535;52.192;9.886;2023-03-23T11:20:54;100095.06;;;15.18;64.80
13952;BME280;39535;52.192;9.886;2023-03-23T11:23:23;100088.63;;;15.25;63.83
13952;BME280;39535;52.192;9.886;2023-03-23T11:26:10;100119.00;;;15.33;62.83
13952;BME280;39535;52.192;9.886;2023-03-23T11:28:45;100147.44;;;15.43;61.38
13952;BME280;39535;52.192;9.886;2023-03-23T11:31:13;100196.69;;;15.60;61.53
13952;BME280;39535;52.192;9.886;2023-03-23T11:33:54;100228.78;;;15.89;60.46
13952;BME280;39535;52.192;9.886;2023-03-23T11:36:29;100246.81;;;15.98;58.80
13952;BME280;39535;52.192;9.886;2023-03-23T11:38:56;100285.09;;;16.26;57.57
13952;BME280;39535;52.192;9.886;2023-03-23T11:41:24;100331.91;;;16.78;56.11
13952;BME280;39535;52.192;9.886;2023-03-23T11:43:53;100362.03;;;17.83;54.75
13952;BME280;39535;52.192;9.886;2023-03-23T11:46:31;100435.38;;;18.82;52.52
13952;BME280;39535;52.192;9.886;2023-03-23T11:49:02;100483.25;;;19.43;51.51
13952;BME280;39535;52.192;9.886;2023-03-23T11:51:36;100533.19;;;19.98;49.45
13952;BME280;39535;52.192;9.886;2023-03-23T11:54:11;100614.66;;;19.11;49.97
13952;BME280;39535;52.192;9.886;2023-03-23T11:56:43;100634.38;;;17.75;49.92
13952;BME280;39535;52.192;9.886;2023-03-23T11:59:13;100627.41;;;17.35;52.60
13952;BME280;39535;52.192;9.886;2023-03-23T12:01:47;100566.22;;;17.06;53.92
13952;BME280;39535;52.192;9.886;2023-03-23T12:04:31;100529.09;;;16.70;53.86
13952;BME280;39535;52.192;9.886;2023-03-23T12:07:08;100482.00;;;16.41;55.38
13952;BME280;39535;52.192;9.886;2023-03-23T12:09:43;100419.75;;;16.18;56.34
13952;BME280;39535;52.192;9.886;2023-03-23T12:12:18;100373.66;;;16.08;57.60
13952;BME280;39535;52.192;9.886;2023-03-23T12:14:53;100322.75;;;15.87;58.64
13952;BME280;39535;52.192;9.886;2023-03-23T12:17:29;100284.00;;;15.70;58.60
13952;BME280;39535;52.192;9.886;2023-03-23T12:20:08;100261.47;;;15.63;58.73
13952;BME280;39535;52.192;9.886;2023-03-23T12:22:58;100241.06;;;15.47;59.41
13952;BME280;39535;52.192;9.886;2023-03-23T12:25:49;100211.97;;;15.52;59.92
13952;BME280;39535;52.192;9.886;2023-03-23T12:28:25;100209.25;;;15.33;59.61
13952;BME280;39535;52.192;9.886;2023-03-23T12:31:03;100208.72;;;15.25;59.58
13952;BME280;39535;52.192;9.886;2023-03-23T12:33:40;100189.97;;;15.12;60.84
13952;BME280;39535;52.192;9.886;2023-03-23T12:36:20;100191.66;;;14.93;60.96
13952;BME280;39535;52.192;9.886;2023-03-23T12:39:00;100170.50;;;14.06;64.92
13952;BME280;39535;52.192;9.886;2023-03-23T12:41:36;100087.34;;;13.84;65.26
13952;BME280;39535;52.192;9.886;2023-03-23T12:44:07;100051.47;;;13.85;66.49
13952;BME280;39535;52.192;9.886;2023-03-23T12:46:50;99991.63;;;13.25;68.41
13952;BME280;39535;52.192;9.886;2023-03-23T12:49:26;99936.66;;;13.00;70.63
13952;BME280;39535;52.192;9.886;2023-03-23T12:51:58;99822.34;;;12.74;74.55
13952;BME280;39535;52.192;9.886;2023-03-23T12:54:30;99657.78;;;12.43;79.33
13952;BME280;39535;52.192;9.886;2023-03-23T12:57:02;99555.47;;;12.27;80.67
13952;BME280;39535;52.192;9.886;2023-03-23T12:59:36;99497.28;;;11.98;82.21
13952;BME280;39535;52.192;9.886;2023-03-23T13:02:14;99446.19;;;12.11;83.50
13952;BME280;39535;52.192;9.886;2023-03-23T13:04:44;99431.34;;;12.12;83.48
13952;BME280;39535;52.192;9.886;2023-03-23T13:07:16;99406.84;;;11.92;86.01
13952;BME280;39535;52.192;9.886;2023-03-23T13:09:49;99394.44;;;11.76;86.23
13952;BME280;39535;52.192;9.886;2023-03-23T13:12:16;99361.81;;;11.64;87.55
13952;BME280;39535;52.192;9.886;2023-03-23T13:14:50;99385.69;;;11.55;85.78